createdAt,value
2019-04-07T00:01:15.807Z,12.24
2019-04-07T00:03:45.681Z,12.21
2019-04-07T00:06:15.672Z,12.15
2019-04-07T00:08:46.586Z,12.13
2019-04-07T00:11:17.538Z,12.13
2019-04-07T00:13:47.201Z,12.09
2019-04-07T00:16:18.526Z,12.06
2019-04-07T00:18:48.216Z,12.05
2019-04-07T00:21:18.086Z,12.04
2019-04-07T00:23:47.881Z,12.01
2019-04-07T00:26:17.749Z,11.99
2019-04-07T00:28:47.487Z,11.94
2019-04-07T00:31:17.205Z,11.87
2019-04-07T00:33:47.295Z,11.83
2019-04-07T00:36:17.796Z,11.80
2019-04-07T00:38:48.917Z,11.76
2019-04-07T00:41:18.603Z,11.70
2019-04-07T00:43:48.289Z,11.68
2019-04-07T00:46:18.016Z,11.68
2019-04-07T00:48:47.722Z,11.67
2019-04-07T00:51:17.857Z,11.63
2019-04-07T00:53:47.617Z,11.59
2019-04-07T00:56:17.276Z,11.53
2019-04-07T00:58:47.359Z,11.48
2019-04-07T01:01:18.825Z,11.45
2019-04-07T01:03:49.084Z,11.45
2019-04-07T01:06:18.829Z,11.42
2019-04-07T01:08:49.090Z,11.42
2019-04-07T01:11:18.940Z,11.39
2019-04-07T01:13:49.017Z,11.39
2019-04-07T01:19:43.454Z,11.36
2019-04-07T01:22:13.264Z,11.31
2019-04-07T01:24:43.222Z,11.33
2019-04-07T01:27:13.165Z,11.34
2019-04-07T01:29:43.127Z,11.31
2019-04-07T01:32:12.813Z,11.31
2019-04-07T01:34:42.709Z,11.32
2019-04-07T01:37:13.613Z,11.32
2019-04-07T01:39:43.877Z,11.32
2019-04-07T01:42:38.308Z,11.29
2019-04-07T01:45:39.400Z,11.30
2019-04-07T01:48:33.733Z,11.27
2019-04-07T01:51:25.792Z,11.28
2019-04-07T01:54:13.030Z,11.25
2019-04-07T01:57:00.292Z,11.21
2019-04-07T01:59:47.587Z,11.18
2019-04-07T02:02:26.636Z,11.17
2019-04-07T02:05:03.512Z,11.16
2019-04-07T02:08:04.508Z,11.12
2019-04-07T02:10:49.623Z,11.08
2019-04-07T02:13:37.083Z,11.03
2019-04-07T02:16:26.945Z,10.97
2019-04-07T02:19:21.632Z,10.95
2019-04-07T02:21:59.186Z,10.89
2019-04-07T02:24:46.370Z,10.82
2019-04-07T02:27:25.231Z,10.75
2019-04-07T02:30:14.469Z,10.68
2019-04-07T02:32:55.130Z,10.64
2019-04-07T02:35:37.766Z,10.63
2019-04-07T02:38:23.088Z,10.62
2019-04-07T02:40:59.700Z,10.60
2019-04-07T02:43:40.346Z,10.55
2019-04-07T02:46:19.023Z,10.53
2019-04-07T02:48:54.376Z,10.50
2019-04-07T02:51:51.840Z,10.47
2019-04-07T02:54:40.556Z,10.44
2019-04-07T02:57:16.963Z,10.42
2019-04-07T02:59:59.453Z,10.40
2019-04-07T03:02:35.634Z,10.36
2019-04-07T03:05:12.039Z,10.29
2019-04-07T03:08:03.825Z,10.22
2019-04-07T03:10:47.383Z,10.13
2019-04-07T03:13:35.054Z,10.04
2019-04-07T03:16:22.325Z,9.96
2019-04-07T03:19:04.489Z,9.79
2019-04-07T03:21:49.325Z,9.62
2019-04-07T03:24:30.601Z,9.63
2019-04-07T03:27:22.133Z,9.59
2019-04-07T03:30:03.932Z,9.62
2019-04-07T03:33:13.632Z,9.64
2019-04-07T03:36:17.978Z,9.72
2019-04-07T03:39:09.300Z,9.77
2019-04-07T03:41:44.507Z,9.82
2019-04-07T03:44:32.315Z,9.80
2019-04-07T03:47:27.037Z,9.77
2019-04-07T03:50:19.033Z,9.78
2019-04-07T03:52:56.364Z,9.75
2019-04-07T03:56:00.087Z,9.70
2019-04-07T03:58:55.730Z,9.70
2019-04-07T04:01:43.622Z,9.68
2019-04-07T04:04:35.050Z,9.67
2019-04-07T04:07:20.250Z,9.62
2019-04-07T04:10:02.076Z,9.59
2019-04-07T04:12:55.014Z,9.59
2019-04-07T04:15:33.849Z,9.58
2019-04-07T04:18:03.573Z,9.51
2019-04-07T04:20:34.410Z,9.44
2019-04-07T04:23:04.501Z,9.35
2019-04-07T04:25:34.525Z,9.15
2019-04-07T04:28:04.937Z,8.98
2019-04-07T04:30:34.724Z,8.89
2019-04-07T04:33:04.504Z,8.78
2019-04-07T04:35:34.618Z,8.68
2019-04-07T04:38:04.625Z,8.53
2019-04-07T04:40:34.376Z,8.38
2019-04-07T04:43:05.183Z,8.24
2019-04-07T04:45:34.888Z,8.19
2019-04-07T04:48:04.803Z,8.12
2019-04-07T04:50:35.370Z,8.03
2019-04-07T04:53:06.103Z,7.94
2019-04-07T04:55:35.935Z,7.87
2019-04-07T04:58:07.289Z,7.83
2019-04-07T05:00:37.183Z,7.99
2019-04-07T05:03:07.186Z,8.19
2019-04-07T05:05:36.902Z,8.44
2019-04-07T05:08:06.869Z,8.64
2019-04-07T05:10:37.169Z,8.82
2019-04-07T05:13:07.573Z,9.02
2019-04-07T05:15:37.851Z,9.29
2019-04-07T05:18:07.617Z,9.48
2019-04-07T05:20:37.679Z,9.73
2019-04-07T05:23:07.799Z,10.09
2019-04-07T05:25:37.805Z,10.62
2019-04-07T05:28:07.633Z,11.03
2019-04-07T05:30:37.987Z,11.41
2019-04-07T05:33:07.856Z,11.70
2019-04-07T05:35:37.981Z,11.97
2019-04-07T05:38:09.404Z,12.35
2019-04-07T05:40:39.136Z,12.58
2019-04-07T05:43:09.638Z,12.97
2019-04-07T05:45:39.949Z,13.48
2019-04-07T05:48:09.846Z,14.01
2019-04-07T05:50:39.603Z,14.45
2019-04-07T05:53:12.119Z,14.82
2019-04-07T05:55:40.702Z,15.24
2019-04-07T05:58:10.648Z,15.57
2019-04-07T06:00:41.593Z,15.72
2019-04-07T06:03:12.105Z,15.91
2019-04-07T06:05:42.008Z,16.11
2019-04-07T06:08:22.424Z,16.20
2019-04-07T06:10:43.668Z,16.36
2019-04-07T06:13:14.673Z,16.51
2019-04-07T06:15:45.690Z,16.68
2019-04-07T06:18:15.674Z,16.92
2019-04-07T06:20:46.401Z,17.24
2019-04-07T06:23:16.995Z,17.64
2019-04-07T06:25:47.288Z,18.05
2019-04-07T06:28:19.019Z,18.28
2019-04-07T06:30:48.575Z,18.37
2019-04-07T06:33:18.318Z,18.59
2019-04-07T06:35:48.090Z,18.85
2019-04-07T06:38:17.817Z,18.93
2019-04-07T06:40:47.982Z,19.12
2019-04-07T06:43:18.638Z,19.27
2019-04-07T06:46:10.658Z,19.69
2019-04-07T06:49:00.405Z,20.00
2019-04-07T06:51:48.999Z,20.19
2019-04-07T06:54:42.118Z,20.31
2019-04-07T06:57:20.005Z,20.51
2019-04-07T07:00:23.084Z,20.68
2019-04-07T07:03:02.359Z,20.61
2019-04-07T07:06:01.136Z,20.34
2019-04-07T07:08:45.860Z,20.23
2019-04-07T07:11:28.735Z,20.08
2019-04-07T07:14:00.624Z,20.38
2019-04-07T07:16:41.320Z,21.35
2019-04-07T07:19:33.511Z,21.35
2019-04-07T07:22:22.286Z,21.52
2019-04-07T07:24:56.435Z,21.78
2019-04-07T07:27:23.898Z,22.10
2019-04-07T07:29:53.976Z,22.25
2019-04-07T07:32:24.466Z,22.41
2019-04-07T07:34:54.253Z,22.70
2019-04-07T07:37:25.291Z,22.93
2019-04-07T07:39:55.466Z,23.20
2019-04-07T07:42:25.672Z,23.25
2019-04-07T07:44:56.025Z,23.31
2019-04-07T07:47:26.366Z,23.62
2019-04-07T07:49:56.161Z,23.57
2019-04-07T07:52:25.870Z,23.27
2019-04-07T07:54:59.809Z,23.29
2019-04-07T07:57:27.308Z,23.29
2019-04-07T07:59:57.367Z,23.26
2019-04-07T08:02:29.024Z,23.41
2019-04-07T08:04:59.270Z,23.52
2019-04-07T08:07:30.232Z,23.66
2019-04-07T08:10:00.685Z,23.76
2019-04-07T08:12:34.307Z,23.77
2019-04-07T08:15:03.110Z,24.23
2019-04-07T08:17:33.885Z,24.45
2019-04-07T08:20:03.980Z,24.73
2019-04-07T08:22:40.605Z,24.63
2019-04-07T08:25:06.204Z,24.58
2019-04-07T08:27:36.165Z,24.68
2019-04-07T08:30:09.914Z,24.61
2019-04-07T08:32:37.749Z,24.66
2019-04-07T08:35:08.317Z,24.78
2019-04-07T08:37:38.370Z,24.79
2019-04-07T08:40:09.375Z,24.83
2019-04-07T08:42:39.256Z,24.93
2019-04-07T08:45:09.421Z,25.18
2019-04-07T08:47:39.240Z,24.95
2019-04-07T08:50:09.473Z,24.64
2019-04-07T08:52:42.638Z,24.59
2019-04-07T08:55:10.842Z,24.58
2019-04-07T08:57:41.276Z,24.72
2019-04-07T09:00:17.388Z,24.81
2019-04-07T09:03:00.907Z,25.02
2019-04-07T09:05:22.417Z,24.63
2019-04-07T09:07:51.794Z,25.01
2019-04-07T09:10:27.390Z,25.28
2019-04-07T09:13:01.734Z,25.69
2019-04-07T09:15:43.063Z,26.15
2019-04-07T09:18:19.130Z,26.39
2019-04-07T09:21:06.580Z,26.23
2019-04-07T09:23:59.286Z,26.10
2019-04-07T09:26:40.559Z,26.02
2019-04-07T09:29:30.036Z,26.36
2019-04-07T09:32:17.821Z,25.99
2019-04-07T09:35:07.128Z,25.74
2019-04-07T09:37:54.868Z,26.29
2019-04-07T09:40:42.216Z,26.27
2019-04-07T09:43:30.579Z,26.41
2019-04-07T09:46:09.316Z,26.56
2019-04-07T09:49:12.548Z,26.93
2019-04-07T09:51:58.524Z,27.33
2019-04-07T09:54:47.343Z,26.99
2019-04-07T09:57:46.140Z,26.80
2019-04-07T10:00:33.906Z,27.15
2019-04-07T10:03:22.376Z,26.98
2019-04-07T10:06:13.824Z,26.76
2019-04-07T10:09:11.339Z,26.50
2019-04-07T10:11:54.356Z,26.07
2019-04-07T10:14:53.050Z,25.99
2019-04-07T10:17:45.484Z,26.49
2019-04-07T10:20:28.601Z,26.94
2019-04-07T10:23:24.176Z,26.77
2019-04-07T10:26:08.272Z,26.46
2019-04-07T10:28:46.316Z,26.22
2019-04-07T10:31:31.572Z,26.73
2019-04-07T10:34:35.173Z,26.46
2019-04-07T10:37:36.280Z,26.33
2019-04-07T10:40:25.386Z,26.54
2019-04-07T10:43:20.017Z,26.51
2019-04-07T10:46:08.727Z,25.78
2019-04-07T10:48:45.642Z,25.68
2019-04-07T10:51:29.272Z,25.68
2019-04-07T10:54:15.772Z,25.52
2019-04-07T10:57:01.025Z,25.64
2019-04-07T10:59:40.314Z,25.36
2019-04-07T11:02:18.172Z,25.79
2019-04-07T11:05:03.138Z,26.41
2019-04-07T11:07:58.632Z,27.09
2019-04-07T11:10:39.435Z,27.53
2019-04-07T11:13:24.823Z,27.72
2019-04-07T11:16:10.921Z,27.67
2019-04-07T11:18:51.800Z,27.46
2019-04-07T11:21:38.076Z,27.44
2019-04-07T11:24:22.935Z,26.94
2019-04-07T11:27:13.024Z,26.77
2019-04-07T11:29:46.728Z,26.95
2019-04-07T11:32:33.481Z,27.00
2019-04-07T11:35:28.651Z,27.02
2019-04-07T11:38:14.899Z,26.78
2019-04-07T11:40:59.533Z,26.80
2019-04-07T11:43:42.459Z,26.86
2019-04-07T11:46:22.024Z,27.29
2019-04-07T11:48:59.032Z,27.38
2019-04-07T11:51:47.903Z,27.34
2019-04-07T11:54:21.798Z,27.29
2019-04-07T11:57:00.932Z,27.00
2019-04-07T11:59:49.073Z,26.78
2019-04-07T12:02:41.093Z,26.42
2019-04-07T12:05:35.178Z,25.73
2019-04-07T12:08:20.371Z,25.26
2019-04-07T12:11:03.459Z,25.22
2019-04-07T12:13:48.501Z,25.48
2019-04-07T12:16:42.802Z,26.02
2019-04-07T12:19:23.905Z,26.37
2019-04-07T12:21:59.483Z,26.46
2019-04-07T12:25:03.254Z,26.72
2019-04-07T12:27:50.666Z,26.75
2019-04-07T12:30:52.848Z,26.52
2019-04-07T12:33:37.474Z,26.16
2019-04-07T12:36:28.907Z,26.05
2019-04-07T12:39:21.209Z,26.47
2019-04-07T12:41:58.181Z,26.18
2019-04-07T12:44:42.854Z,26.31
2019-04-07T12:47:21.481Z,26.56
2019-04-07T12:50:06.053Z,26.47
2019-04-07T12:52:48.452Z,25.97
2019-04-07T12:55:29.434Z,25.79
2019-04-07T12:58:16.463Z,26.02
2019-04-07T13:01:01.370Z,25.87
2019-04-07T13:03:45.092Z,25.44
2019-04-07T13:06:25.253Z,25.02
2019-04-07T13:09:13.850Z,25.00
2019-04-07T13:12:05.688Z,24.25
2019-04-07T13:14:57.188Z,23.70
2019-04-07T13:17:47.354Z,23.27
2019-04-07T13:20:36.492Z,22.55
2019-04-07T13:23:13.865Z,21.96
2019-04-07T13:25:55.048Z,21.73
2019-04-07T13:28:28.844Z,21.72
2019-04-07T13:31:14.565Z,21.67
2019-04-07T13:34:15.848Z,21.59
2019-04-07T13:37:04.815Z,21.45
2019-04-07T13:39:52.400Z,21.39
2019-04-07T13:42:42.895Z,21.49
2019-04-07T13:45:31.229Z,21.36
2019-04-07T13:48:24.466Z,21.22
2019-04-07T13:51:12.959Z,21.33
2019-04-07T13:54:02.016Z,21.38
2019-04-07T13:56:52.080Z,21.46
2019-04-07T13:59:44.078Z,21.30
2019-04-07T14:02:33.899Z,21.14
2019-04-07T14:05:13.410Z,20.87
2019-04-07T14:08:00.120Z,20.97
2019-04-07T14:10:43.933Z,20.92
2019-04-07T14:13:26.890Z,20.96
2019-04-07T14:16:10.959Z,20.92
2019-04-07T14:18:59.180Z,20.90
2019-04-07T14:21:34.946Z,20.79
2019-04-07T14:24:14.769Z,20.77
2019-04-07T14:27:08.642Z,20.65
2019-04-07T14:29:51.287Z,20.55
2019-04-07T14:32:38.821Z,20.41
2019-04-07T14:35:19.478Z,20.56
2019-04-07T14:37:57.261Z,20.81
2019-04-07T14:40:50.093Z,20.90
2019-04-07T14:43:35.380Z,20.90
2019-04-07T14:46:22.749Z,20.78
2019-04-07T14:49:14.088Z,20.62
2019-04-07T14:52:03.710Z,20.65
2019-04-07T14:54:56.182Z,20.69
2019-04-07T14:57:49.086Z,20.57
2019-04-07T15:00:38.679Z,20.51
2019-04-07T15:03:09.341Z,20.56
2019-04-07T15:05:42.311Z,20.22
2019-04-07T15:08:30.377Z,20.22
2019-04-07T15:11:08.622Z,20.16
2019-04-07T15:13:38.675Z,20.14
2019-04-07T15:16:08.594Z,20.04
2019-04-07T15:18:38.353Z,20.12
2019-04-07T15:21:08.164Z,20.07
2019-04-07T15:23:38.003Z,20.07
2019-04-07T15:26:08.977Z,20.04
2019-04-07T15:28:38.645Z,20.05
2019-04-07T15:31:08.631Z,20.12
2019-04-07T15:33:39.472Z,20.09
2019-04-07T15:36:10.778Z,20.07
2019-04-07T15:38:41.811Z,19.96
2019-04-07T15:41:16.426Z,19.76
2019-04-07T15:43:45.227Z,19.76
2019-04-07T15:46:18.019Z,19.77
2019-04-07T15:48:46.599Z,19.84
2019-04-07T15:51:16.426Z,19.86
2019-04-07T15:53:50.947Z,19.87
2019-04-07T15:56:19.407Z,19.87
2019-04-07T15:58:49.533Z,19.84
2019-04-07T16:01:19.425Z,19.80
2019-04-07T16:03:52.625Z,19.75
2019-04-07T16:06:20.731Z,19.51
2019-04-07T16:08:51.197Z,19.51
2019-04-07T16:11:23.468Z,19.56
2019-04-07T16:13:52.360Z,19.52
2019-04-07T16:16:24.914Z,19.50
2019-04-07T16:18:53.544Z,19.47
2019-04-07T16:21:24.121Z,19.42
2019-04-07T16:23:54.611Z,19.40
2019-04-07T16:26:26.114Z,19.40
2019-04-07T16:28:56.262Z,19.38
2019-04-07T16:31:25.942Z,19.36
2019-04-07T16:33:56.178Z,19.32
2019-04-07T16:36:26.680Z,19.28
2019-04-07T16:39:00.432Z,19.22
2019-04-07T16:41:28.091Z,19.14
2019-04-07T16:43:58.696Z,19.09
2019-04-07T16:46:28.606Z,19.05
2019-04-07T16:49:01.724Z,18.97
2019-04-07T16:51:32.994Z,18.91
2019-04-07T16:54:08.189Z,18.84
2019-04-07T16:56:35.577Z,18.74
2019-04-07T16:59:08.821Z,18.66
2019-04-07T17:01:37.807Z,18.61
2019-04-07T17:04:08.323Z,18.56
2019-04-07T17:06:39.056Z,18.52
2019-04-07T17:09:23.108Z,18.47
2019-04-07T17:11:50.462Z,18.41
2019-04-07T17:14:20.623Z,18.35
2019-04-07T17:16:50.669Z,18.31
2019-04-07T17:19:21.381Z,18.25
2019-04-07T17:21:51.968Z,18.23
2019-04-07T17:24:28.555Z,18.18
2019-04-07T17:26:54.905Z,18.11
2019-04-07T17:29:26.399Z,18.02
2019-04-07T17:31:58.544Z,17.94
2019-04-07T17:34:27.850Z,17.87
2019-04-07T17:36:57.719Z,17.79
2019-04-07T17:39:48.235Z,17.74
2019-04-07T17:42:20.750Z,17.68
2019-04-07T17:45:08.548Z,17.60
2019-04-07T17:48:04.924Z,17.56
2019-04-07T17:50:50.079Z,17.52
2019-04-07T17:53:36.076Z,17.43
2019-04-07T17:56:17.992Z,17.34
2019-04-07T17:59:11.259Z,17.25
2019-04-07T18:01:56.768Z,17.13
2019-04-07T18:04:48.621Z,17.03
2019-04-07T18:07:34.123Z,16.95
2019-04-07T18:10:23.858Z,16.88
2019-04-07T18:13:12.466Z,16.84
2019-04-07T18:16:01.209Z,16.80
2019-04-07T18:18:51.721Z,16.76
2019-04-07T18:21:38.655Z,16.69
2019-04-07T18:24:22.785Z,16.63
2019-04-07T18:27:19.374Z,16.53
2019-04-07T18:29:59.950Z,16.45
2019-04-07T18:32:37.341Z,16.32
2019-04-07T18:35:21.530Z,16.21
2019-04-07T18:38:11.399Z,16.14
2019-04-07T18:41:01.657Z,16.06
2019-04-07T18:43:56.470Z,15.90
2019-04-07T18:46:29.083Z,15.79
2019-04-07T18:49:20.386Z,15.69
2019-04-07T18:52:16.070Z,15.66
2019-04-07T18:55:04.906Z,15.67
2019-04-07T18:57:45.116Z,15.63
2019-04-07T19:00:32.335Z,15.55
2019-04-07T19:03:10.534Z,15.43
2019-04-07T19:06:08.756Z,15.28
2019-04-07T19:09:03.638Z,15.13
2019-04-07T19:11:47.240Z,15.03
2019-04-07T19:14:45.961Z,14.92
2019-04-07T19:17:24.286Z,14.73
2019-04-07T19:20:13.007Z,14.52
2019-04-07T19:22:51.311Z,14.35
2019-04-07T19:25:37.696Z,14.25
2019-04-07T19:28:26.490Z,14.23
2019-04-07T19:31:10.742Z,14.19
2019-04-07T19:33:58.695Z,14.15
2019-04-07T19:36:47.199Z,14.10
2019-04-07T19:39:40.700Z,13.91
2019-04-07T19:42:29.072Z,13.80
2019-04-07T19:45:11.248Z,13.78
2019-04-07T19:48:08.684Z,13.72
2019-04-07T19:51:04.813Z,13.32
2019-04-07T19:54:00.566Z,12.59
2019-04-07T19:56:57.774Z,12.42
2019-04-07T19:59:49.262Z,12.44
2019-04-07T20:02:47.702Z,12.43
2019-04-07T20:05:41.729Z,12.49
2019-04-07T20:08:35.190Z,12.59
2019-04-07T20:11:28.455Z,12.66
2019-04-07T20:14:04.281Z,12.39
2019-04-07T20:16:46.298Z,12.14
2019-04-07T20:19:38.172Z,12.23
2019-04-07T20:22:23.883Z,12.45
2019-04-07T20:25:15.769Z,12.69
2019-04-07T20:28:04.940Z,12.85
2019-04-07T20:30:40.588Z,12.93
2019-04-07T20:33:18.421Z,12.98
2019-04-07T20:35:57.519Z,12.62
2019-04-07T20:38:33.416Z,12.13
2019-04-07T20:41:31.550Z,11.62
2019-04-07T20:44:13.159Z,11.22
2019-04-07T20:47:01.919Z,11.02
2019-04-07T20:49:41.192Z,10.91
2019-04-07T20:52:29.858Z,10.90
2019-04-07T20:55:08.538Z,11.10
2019-04-07T20:58:16.247Z,11.27
2019-04-07T21:00:59.438Z,11.44
2019-04-07T21:03:45.088Z,11.66
2019-04-07T21:06:31.737Z,11.90
2019-04-07T21:09:35.402Z,12.07
2019-04-07T21:12:16.263Z,12.03
2019-04-07T21:15:16.933Z,12.02
2019-04-07T21:17:54.422Z,12.11
2019-04-07T21:20:38.545Z,12.32
2019-04-07T21:23:20.832Z,12.48
2019-04-07T21:26:06.203Z,12.64
2019-04-07T21:28:50.435Z,12.74
2019-04-07T21:31:30.214Z,12.79
2019-04-07T21:34:26.038Z,12.75
2019-04-07T21:37:25.536Z,12.69
2019-04-07T21:40:09.043Z,12.56
2019-04-07T21:42:57.023Z,12.46
2019-04-07T21:45:54.731Z,12.50
2019-04-07T21:48:35.869Z,12.51
2019-04-07T21:51:31.107Z,12.54
2019-04-07T21:54:09.781Z,12.56
2019-04-07T21:56:57.002Z,12.55
2019-04-07T22:00:00.892Z,12.57
2019-04-07T22:02:59.624Z,12.64
2019-04-07T22:05:54.474Z,12.66
2019-04-07T22:08:36.882Z,12.66
2019-04-07T22:11:07.175Z,12.67
2019-04-07T22:13:37.178Z,12.66
2019-04-07T22:16:07.929Z,12.69
2019-04-07T22:18:39.399Z,12.70
2019-04-07T22:21:09.722Z,12.69
2019-04-07T22:23:40.192Z,12.66
2019-04-07T22:26:16.397Z,12.63
2019-04-07T22:28:42.284Z,12.62
2019-04-07T22:31:15.395Z,12.62
2019-04-07T22:33:46.552Z,12.60
2019-04-07T22:36:16.756Z,12.54
2019-04-07T22:38:46.699Z,12.51
2019-04-07T22:41:16.576Z,12.46
2019-04-07T22:43:50.213Z,12.41
2019-04-07T22:46:23.658Z,12.40
2019-04-07T22:48:50.191Z,12.38
2019-04-07T22:51:20.874Z,12.34
2019-04-07T22:53:52.279Z,12.30
2019-04-07T22:56:22.337Z,12.22
2019-04-07T22:58:52.228Z,12.17
2019-04-07T23:01:22.967Z,12.13
2019-04-07T23:03:53.801Z,12.08
2019-04-07T23:06:24.561Z,12.03
2019-04-07T23:08:54.283Z,12.00
2019-04-07T23:11:23.931Z,11.99
2019-04-07T23:13:53.618Z,11.75
2019-04-07T23:16:24.041Z,11.37
2019-04-07T23:18:54.192Z,11.05
2019-04-07T23:21:24.667Z,10.56
2019-04-07T23:23:54.437Z,10.22
2019-04-07T23:26:24.508Z,9.97
2019-04-07T23:28:54.320Z,9.80
2019-04-07T23:31:24.231Z,9.88
2019-04-07T23:33:54.386Z,9.88
2019-04-07T23:36:24.267Z,9.79
2019-04-07T23:38:53.930Z,9.70
2019-04-07T23:41:23.703Z,9.63
2019-04-07T23:43:53.469Z,9.53
2019-04-07T23:46:26.915Z,9.46
2019-04-07T23:48:56.010Z,9.57
2019-04-07T23:51:26.716Z,9.73
2019-04-07T23:54:11.454Z,9.93
2019-04-07T23:56:43.664Z,10.04
2019-04-07T23:59:14.640Z,10.04
